createdAt,value
2023-05-15T00:01:01.211Z,59.81
2023-05-15T00:03:33.406Z,58.92
2023-05-15T00:06:01.701Z,59.66
2023-05-15T00:08:31.307Z,60.31
2023-05-15T00:11:02.145Z,59.98
2023-05-15T00:13:30.955Z,63.20
2023-05-15T00:15:59.271Z,62.12
2023-05-15T00:18:27.799Z,60.19
2023-05-15T00:20:56.166Z,61.86
2023-05-15T00:23:24.450Z,62.57
2023-05-15T00:25:54.053Z,63.21
2023-05-15T00:28:22.329Z,63.31
2023-05-15T00:30:51.926Z,63.23
2023-05-15T00:33:20.262Z,63.78
2023-05-15T00:35:48.593Z,65.32
2023-05-15T00:38:16.815Z,68.50
2023-05-15T00:40:45.785Z,69.57
2023-05-15T00:43:16.266Z,70.10
2023-05-15T00:45:45.422Z,64.26
2023-05-15T00:48:14.044Z,66.79
2023-05-15T00:50:42.574Z,68.93
2023-05-15T00:53:10.997Z,66.08
2023-05-15T00:55:39.638Z,66.06
2023-05-15T00:58:08.672Z,70.68
2023-05-15T01:00:38.323Z,69.68
2023-05-15T01:03:06.940Z,67.01
2023-05-15T01:05:35.316Z,65.07
2023-05-15T01:08:08.776Z,71.29
2023-05-15T01:10:37.585Z,65.78
2023-05-15T01:13:06.302Z,61.89
2023-05-15T01:15:34.687Z,64.94
2023-05-15T01:18:06.101Z,67.12
2023-05-15T01:20:38.872Z,67.54
2023-05-15T01:23:11.317Z,63.86
2023-05-15T01:25:48.110Z,74.18
2023-05-15T01:28:20.866Z,76.85
2023-05-15T01:30:50.262Z,74.73
2023-05-15T01:33:23.623Z,77.04
2023-05-15T01:35:56.178Z,77.70
2023-05-15T01:38:31.143Z,74.11
2023-05-15T01:41:03.746Z,74.63
2023-05-15T01:43:34.198Z,68.20
2023-05-15T01:46:02.532Z,64.29
2023-05-15T01:48:31.663Z,61.26
2023-05-15T01:51:03.408Z,62.76
2023-05-15T01:53:33.149Z,67.20
2023-05-15T01:56:01.914Z,72.94
2023-05-15T01:58:30.599Z,72.48
2023-05-15T02:01:01.259Z,75.64
2023-05-15T02:03:29.349Z,68.93
2023-05-15T02:05:57.773Z,71.12
2023-05-15T02:08:28.876Z,65.42
2023-05-15T02:10:58.248Z,65.11
2023-05-15T02:13:27.161Z,66.54
2023-05-15T02:15:55.803Z,72.17
2023-05-15T02:18:25.675Z,68.14
2023-05-15T02:20:53.965Z,74.83
2023-05-15T02:23:22.246Z,78.13
2023-05-15T02:26:02.549Z,71.03
2023-05-15T02:28:36.547Z,70.82
2023-05-15T02:31:09.732Z,72.05
2023-05-15T02:33:43.815Z,78.68
2023-05-15T02:36:15.535Z,75.76
2023-05-15T02:38:48.534Z,73.35
2023-05-15T02:41:17.976Z,73.43
2023-05-15T02:43:48.259Z,68.65
2023-05-15T02:46:17.856Z,63.56
2023-05-15T02:48:48.284Z,61.24
2023-05-15T02:51:16.542Z,63.96
2023-05-15T02:53:45.242Z,65.12
2023-05-15T02:56:13.502Z,62.32
2023-05-15T02:58:41.817Z,60.49
2023-05-15T03:01:10.078Z,60.17
2023-05-15T03:03:38.316Z,60.21
2023-05-15T03:06:08.309Z,61.75
2023-05-15T03:08:36.533Z,65.29
2023-05-15T03:11:05.435Z,61.05
2023-05-15T03:13:33.749Z,62.42
2023-05-15T03:16:02.152Z,64.45
2023-05-15T03:18:30.503Z,66.47
2023-05-15T03:20:58.823Z,67.15
2023-05-15T03:23:28.418Z,68.40
2023-05-15T03:25:56.671Z,69.00
2023-05-15T03:28:25.088Z,71.41
2023-05-15T03:30:53.300Z,72.89
2023-05-15T03:33:21.579Z,68.62
2023-05-15T03:35:51.204Z,69.93
2023-05-15T03:38:19.517Z,69.36
2023-05-15T03:40:50.993Z,66.47
2023-05-15T03:43:19.532Z,66.36
2023-05-15T03:45:47.781Z,64.08
2023-05-15T03:48:16.036Z,68.01
2023-05-15T03:50:45.788Z,64.25
2023-05-15T03:53:14.121Z,69.52
2023-05-15T03:55:42.402Z,72.43
2023-05-15T03:58:11.977Z,65.96
2023-05-15T04:00:40.189Z,65.16
2023-05-15T04:03:08.566Z,67.38
2023-05-15T04:05:36.994Z,62.21
2023-05-15T04:08:05.634Z,63.58
2023-05-15T04:10:33.898Z,60.93
2023-05-15T04:13:02.105Z,63.05
2023-05-15T04:15:31.765Z,63.61
2023-05-15T04:18:00.030Z,59.18
2023-05-15T04:20:28.419Z,64.52
2023-05-15T04:22:56.732Z,67.87
2023-05-15T04:25:25.688Z,64.71
2023-05-15T04:27:54.106Z,64.41
2023-05-15T04:30:22.370Z,65.11
2023-05-15T04:32:52.748Z,64.45
2023-05-15T04:35:21.106Z,64.52
2023-05-15T04:37:49.354Z,60.84
2023-05-15T04:40:18.056Z,65.39
2023-05-15T04:42:46.411Z,66.76
2023-05-15T04:45:14.801Z,61.13
2023-05-15T04:47:43.148Z,56.86
2023-05-15T04:50:13.027Z,57.07
2023-05-15T04:52:41.260Z,57.13
2023-05-15T04:55:11.523Z,60.08
2023-05-15T04:57:39.814Z,60.98
2023-05-15T05:00:12.291Z,57.85
2023-05-15T05:02:40.981Z,53.70
2023-05-15T05:05:10.039Z,54.22
2023-05-15T05:07:39.621Z,55.81
2023-05-15T05:10:09.487Z,56.27
2023-05-15T05:12:37.756Z,55.03
2023-05-15T05:15:07.002Z,54.88
2023-05-15T05:17:35.300Z,59.94
2023-05-15T05:20:03.582Z,64.38
2023-05-15T05:22:31.866Z,61.56
2023-05-15T05:25:01.779Z,60.18
2023-05-15T05:27:30.520Z,65.20
2023-05-15T05:29:58.710Z,62.57
2023-05-15T05:32:26.998Z,59.48
2023-05-15T05:34:55.241Z,57.91
2023-05-15T05:37:23.570Z,56.82
2023-05-15T05:39:51.800Z,61.78
2023-05-15T05:42:21.403Z,61.66
2023-05-15T05:44:49.615Z,62.12
2023-05-15T05:47:17.914Z,61.72
2023-05-15T05:49:48.151Z,65.54
2023-05-15T05:52:17.006Z,66.74
2023-05-15T05:54:46.405Z,66.74
2023-05-15T05:57:14.761Z,77.61
2023-05-15T05:59:44.368Z,73.03
2023-05-15T06:02:13.539Z,67.93
2023-05-15T06:04:41.928Z,75.70
2023-05-15T06:07:10.521Z,66.08
2023-05-15T06:09:38.823Z,68.44
2023-05-15T06:12:08.388Z,64.00
2023-05-15T06:14:37.075Z,73.28
2023-05-15T06:17:06.889Z,70.83
2023-05-15T06:19:35.193Z,69.24
2023-05-15T06:22:03.447Z,71.14
2023-05-15T06:24:31.694Z,68.13
2023-05-15T06:27:00.068Z,69.21
2023-05-15T06:29:28.334Z,71.15
2023-05-15T06:31:56.670Z,62.46
2023-05-15T06:34:26.283Z,68.07
2023-05-15T06:36:54.520Z,60.58
2023-05-15T06:39:22.716Z,62.49
2023-05-15T06:41:51.125Z,65.51
2023-05-15T06:44:19.409Z,63.93
2023-05-15T06:46:47.751Z,61.75
2023-05-15T06:49:16.099Z,64.37
2023-05-15T06:51:45.700Z,64.11
2023-05-15T06:54:13.962Z,65.60
2023-05-15T06:56:42.448Z,59.54
2023-05-15T06:59:10.699Z,61.81
2023-05-15T07:01:39.170Z,56.20
2023-05-15T07:04:07.826Z,61.87
2023-05-15T07:06:36.469Z,61.00
2023-05-15T07:09:06.454Z,58.70
2023-05-15T07:11:37.374Z,58.64
2023-05-15T07:14:05.702Z,58.91
2023-05-15T07:16:33.997Z,62.70
2023-05-15T07:19:02.545Z,60.17
2023-05-15T07:21:30.892Z,63.10
2023-05-15T07:23:59.128Z,60.09
2023-05-15T07:26:36.199Z,61.39
2023-05-15T07:29:10.318Z,56.74
2023-05-15T07:31:40.425Z,62.47
2023-05-15T07:34:08.791Z,58.91
2023-05-15T07:36:37.038Z,61.57
2023-05-15T07:39:05.480Z,63.17
2023-05-15T07:41:35.042Z,53.65
2023-05-15T07:44:03.305Z,57.31
2023-05-15T07:46:31.655Z,58.02
2023-05-15T07:49:00.016Z,55.76
2023-05-15T07:51:28.257Z,56.35
2023-05-15T07:53:56.649Z,54.70
2023-05-15T07:56:24.952Z,53.17
2023-05-15T07:58:54.622Z,51.73
2023-05-15T08:01:22.912Z,51.90
2023-05-15T08:03:51.329Z,50.36
2023-05-15T08:06:19.657Z,49.90
2023-05-15T08:08:47.848Z,48.20
2023-05-15T08:11:16.112Z,48.82
2023-05-15T08:13:45.591Z,50.54
2023-05-15T08:16:15.276Z,50.03
2023-05-15T08:18:43.599Z,49.81
2023-05-15T08:21:12.194Z,46.01
2023-05-15T08:23:40.393Z,46.29
2023-05-15T08:26:08.605Z,44.58
2023-05-15T08:28:36.881Z,47.92
2023-05-15T08:31:05.263Z,45.84
2023-05-15T08:33:34.943Z,43.08
2023-05-15T08:36:03.276Z,44.10
2023-05-15T08:38:31.627Z,44.44
2023-05-15T08:41:05.310Z,44.87
2023-05-15T08:43:36.187Z,43.91
2023-05-15T08:46:04.628Z,43.76
2023-05-15T08:48:38.294Z,41.95
2023-05-15T08:51:10.556Z,39.41
2023-05-15T08:53:39.256Z,38.88
2023-05-15T08:56:07.853Z,40.78
2023-05-15T08:58:36.239Z,41.34
2023-05-15T09:01:04.850Z,42.45
2023-05-15T09:03:34.603Z,39.13
2023-05-15T09:06:04.485Z,40.66
2023-05-15T09:08:33.698Z,38.03
2023-05-15T09:11:03.795Z,35.79
2023-05-15T09:13:32.292Z,37.27
2023-05-15T09:16:01.378Z,36.01
2023-05-15T09:18:30.025Z,34.03
2023-05-15T09:21:26.166Z,35.87
2023-05-15T09:23:54.432Z,34.17
2023-05-15T09:26:22.686Z,37.38
2023-05-15T09:28:51.049Z,38.00
2023-05-15T09:31:20.594Z,36.37
2023-05-15T09:33:48.862Z,33.29
2023-05-15T09:36:23.300Z,36.56
2023-05-15T09:38:59.388Z,36.94
2023-05-15T09:41:28.741Z,37.61
2023-05-15T09:43:57.494Z,38.32
2023-05-15T09:46:25.992Z,39.64
2023-05-15T09:48:55.855Z,39.12
2023-05-15T09:51:25.518Z,37.26
2023-05-15T09:53:54.308Z,36.54
2023-05-15T09:56:23.011Z,40.49
2023-05-15T09:58:54.659Z,37.27
2023-05-15T10:01:23.430Z,37.32
2023-05-15T10:04:01.156Z,36.20
2023-05-15T10:06:36.175Z,36.07
2023-05-15T10:09:05.277Z,34.37
2023-05-15T10:11:35.737Z,37.62
2023-05-15T10:14:04.162Z,38.44
2023-05-15T10:16:34.787Z,39.08
2023-05-15T10:19:05.375Z,36.81
2023-05-15T10:21:36.086Z,37.79
2023-05-15T10:24:05.541Z,38.97
2023-05-15T10:26:38.671Z,35.44
2023-05-15T10:29:08.212Z,37.19
2023-05-15T10:31:37.077Z,37.73
2023-05-15T10:34:05.940Z,34.85
2023-05-15T10:36:36.781Z,34.70
2023-05-15T10:39:06.660Z,38.72
2023-05-15T10:41:37.417Z,37.79
2023-05-15T10:44:06.483Z,32.20
2023-05-15T10:46:36.312Z,32.15
2023-05-15T10:49:05.528Z,32.19
2023-05-15T10:51:36.822Z,33.25
2023-05-15T10:54:05.890Z,31.24
2023-05-15T10:56:35.744Z,31.30
2023-05-15T10:59:08.031Z,29.71
2023-05-15T11:01:38.068Z,29.25
2023-05-15T11:04:08.577Z,29.60
2023-05-15T11:06:38.845Z,31.38
2023-05-15T11:09:34.474Z,29.93
2023-05-15T11:12:03.681Z,28.59
2023-05-15T11:14:32.926Z,30.19
2023-05-15T11:17:04.000Z,29.80
2023-05-15T11:19:40.766Z,31.53
2023-05-15T11:22:20.643Z,30.73
2023-05-15T11:24:51.974Z,31.48
2023-05-15T11:27:22.376Z,31.56
2023-05-15T11:30:08.920Z,31.28
2023-05-15T11:32:45.131Z,30.21
2023-05-15T11:35:13.869Z,30.47
2023-05-15T11:37:45.327Z,29.50
2023-05-15T11:40:21.322Z,28.63
2023-05-15T11:43:06.824Z,30.01
2023-05-15T11:45:37.157Z,34.21
2023-05-15T11:48:06.560Z,33.32
2023-05-15T11:50:36.273Z,36.83
2023-05-15T11:53:07.725Z,35.22
2023-05-15T11:55:37.612Z,38.93
2023-05-15T11:58:06.514Z,41.69
2023-05-15T12:00:35.181Z,44.02
2023-05-15T12:03:04.708Z,43.53
2023-05-15T12:05:33.177Z,47.87
2023-05-15T12:08:02.373Z,49.78
2023-05-15T12:10:33.185Z,51.52
2023-05-15T12:13:01.494Z,52.55
2023-05-15T12:15:29.855Z,53.16
2023-05-15T12:17:58.127Z,49.82
2023-05-15T12:20:26.734Z,52.82
2023-05-15T12:22:55.135Z,52.30
2023-05-15T12:25:23.363Z,44.33
2023-05-15T12:27:53.011Z,43.55
2023-05-15T12:30:21.293Z,39.43
2023-05-15T12:32:49.732Z,39.12
2023-05-15T12:35:18.036Z,41.72
2023-05-15T12:37:46.621Z,40.06
2023-05-15T12:40:15.262Z,37.22
2023-05-15T12:42:45.228Z,37.63
2023-05-15T12:45:15.847Z,37.62
2023-05-15T12:47:45.094Z,37.39
2023-05-15T12:50:17.136Z,35.35
2023-05-15T12:52:52.852Z,35.44
2023-05-15T12:55:24.472Z,34.24
2023-05-15T12:57:52.987Z,33.66
2023-05-15T13:00:24.027Z,33.18
2023-05-15T13:02:54.375Z,33.46
2023-05-15T13:05:24.174Z,33.56
2023-05-15T13:07:52.909Z,31.46
2023-05-15T13:10:23.297Z,29.55
2023-05-15T13:12:53.398Z,31.89
2023-05-15T13:15:27.456Z,32.57
2023-05-15T13:17:59.227Z,30.35
2023-05-15T13:20:28.420Z,29.54
2023-05-15T13:22:56.778Z,29.45
2023-05-15T13:25:25.033Z,31.03
2023-05-15T13:27:53.463Z,33.16
2023-05-15T13:30:21.752Z,35.45
2023-05-15T13:32:54.782Z,35.33
2023-05-15T13:35:24.034Z,36.49
2023-05-15T13:37:52.323Z,35.60
2023-05-15T13:40:21.270Z,37.19
2023-05-15T13:42:50.197Z,38.38
2023-05-15T13:45:18.499Z,39.96
2023-05-15T13:47:46.824Z,33.60
2023-05-15T13:50:16.872Z,38.28
2023-05-15T13:52:46.261Z,37.16
2023-05-15T13:55:14.740Z,35.98
2023-05-15T13:57:44.209Z,35.45
2023-05-15T14:00:13.989Z,35.51
2023-05-15T14:02:43.033Z,34.92
2023-05-15T14:05:12.149Z,35.91
2023-05-15T14:07:42.085Z,35.53
2023-05-15T14:10:11.474Z,36.70
2023-05-15T14:12:39.978Z,34.68
2023-05-15T14:15:11.143Z,34.45
2023-05-15T14:17:39.537Z,32.93
2023-05-15T14:20:10.000Z,32.39
2023-05-15T14:22:38.258Z,34.52
2023-05-15T14:25:09.801Z,30.16
2023-05-15T14:27:38.057Z,32.17
2023-05-15T14:30:07.686Z,32.50
2023-05-15T14:32:36.021Z,32.71
2023-05-15T14:35:04.739Z,31.36
2023-05-15T14:37:33.024Z,31.64
2023-05-15T14:40:01.399Z,32.07
2023-05-15T14:42:31.178Z,33.80
2023-05-15T14:44:59.457Z,32.78
2023-05-15T14:47:29.989Z,33.69
2023-05-15T14:49:58.312Z,32.62
2023-05-15T14:52:26.554Z,33.63
2023-05-15T14:55:07.828Z,35.45
2023-05-15T14:57:39.110Z,34.73
2023-05-15T15:00:09.532Z,34.16
2023-05-15T15:02:37.798Z,37.11
2023-05-15T15:05:07.432Z,36.90
2023-05-15T15:07:59.091Z,37.51
2023-05-15T15:10:27.552Z,36.67
2023-05-15T15:12:57.340Z,36.83
2023-05-15T15:15:25.745Z,36.85
2023-05-15T15:17:54.372Z,35.57
2023-05-15T15:20:23.136Z,35.73
2023-05-15T15:22:51.751Z,34.51
2023-05-15T15:25:20.551Z,35.96
2023-05-15T15:27:49.009Z,34.46
2023-05-15T15:30:18.617Z,34.76
2023-05-15T15:32:47.237Z,35.36
2023-05-15T15:35:15.504Z,35.53
2023-05-15T15:37:43.725Z,35.45
2023-05-15T15:40:12.295Z,35.06
2023-05-15T15:42:40.789Z,34.72
2023-05-15T15:45:09.672Z,34.78
2023-05-15T15:47:39.407Z,34.63
2023-05-15T15:50:08.424Z,34.04
2023-05-15T15:52:36.766Z,35.77
2023-05-15T15:55:05.640Z,34.95
2023-05-15T15:57:34.186Z,34.74
2023-05-15T16:00:02.509Z,35.60
2023-05-15T16:02:30.929Z,33.72
2023-05-15T16:05:00.548Z,34.15
2023-05-15T16:07:28.831Z,32.77
2023-05-15T16:10:10.588Z,32.06
2023-05-15T16:12:42.335Z,31.70
2023-05-15T16:17:41.832Z,32.84
2023-05-15T16:20:12.412Z,31.85
2023-05-15T16:22:41.783Z,30.40
2023-05-15T16:25:10.649Z,32.54
2023-05-15T16:27:38.841Z,33.25
2023-05-15T16:30:09.150Z,34.79
2023-05-15T16:32:37.451Z,34.34
2023-05-15T16:35:06.686Z,35.98
2023-05-15T16:37:36.461Z,38.20
2023-05-15T16:40:05.238Z,36.81
2023-05-15T16:42:36.528Z,38.00
2023-05-15T16:45:05.592Z,38.60
2023-05-15T16:47:33.974Z,38.66
2023-05-15T16:50:02.371Z,37.99
2023-05-15T16:52:30.682Z,38.73
2023-05-15T16:55:00.323Z,37.37
2023-05-15T16:57:28.732Z,38.25
2023-05-15T16:59:57.056Z,38.70
2023-05-15T17:02:25.456Z,38.99
2023-05-15T17:04:54.082Z,39.29
2023-05-15T17:07:22.341Z,39.48
2023-05-15T17:09:50.805Z,42.17
2023-05-15T17:12:20.906Z,40.74
2023-05-15T17:14:49.287Z,40.52
2023-05-15T17:17:17.816Z,41.32
2023-05-15T17:19:46.173Z,40.82
2023-05-15T17:22:14.429Z,40.45
2023-05-15T17:27:31.096Z,41.29
2023-05-15T17:29:59.390Z,39.58
2023-05-15T17:32:27.704Z,40.70
2023-05-15T17:34:56.185Z,40.45
2023-05-15T17:37:24.383Z,42.48
2023-05-15T17:39:52.607Z,41.04
2023-05-15T17:42:21.154Z,41.32
2023-05-15T17:44:50.756Z,39.54
2023-05-15T17:47:19.006Z,41.21
2023-05-15T17:49:47.254Z,42.37
2023-05-15T17:52:15.584Z,41.83
2023-05-15T17:54:43.775Z,41.88
2023-05-15T17:57:12.082Z,43.29
2023-05-15T17:59:40.373Z,44.31
2023-05-15T18:02:09.999Z,41.75
2023-05-15T18:04:38.255Z,42.56
2023-05-15T18:07:06.523Z,40.98
2023-05-15T18:09:34.884Z,41.45
2023-05-15T18:12:03.058Z,41.11
2023-05-15T18:14:31.340Z,41.38
2023-05-15T18:16:59.575Z,41.13
2023-05-15T18:19:29.192Z,41.37
2023-05-15T18:21:57.574Z,40.40
2023-05-15T18:24:25.850Z,42.93
2023-05-15T18:26:54.114Z,41.17
2023-05-15T18:29:22.348Z,40.33
2023-05-15T18:31:50.700Z,40.99
2023-05-15T18:34:19.133Z,41.86
2023-05-15T18:36:51.875Z,41.89
2023-05-15T18:39:20.228Z,42.55
2023-05-15T18:41:48.465Z,40.24
2023-05-15T18:44:16.784Z,39.59
2023-05-15T18:46:45.121Z,39.46
2023-05-15T18:49:13.386Z,41.40
2023-05-15T18:51:41.689Z,40.97
2023-05-15T18:54:11.615Z,41.44
2023-05-15T18:56:41.802Z,42.53
2023-05-15T18:59:11.342Z,43.09
2023-05-15T19:01:39.665Z,44.17
2023-05-15T19:04:08.687Z,45.19
2023-05-15T19:06:36.952Z,44.30
2023-05-15T19:09:05.553Z,47.19
2023-05-15T19:11:35.225Z,45.65
2023-05-15T19:14:03.437Z,46.18
2023-05-15T19:16:32.157Z,45.96
2023-05-15T19:19:00.696Z,44.55
2023-05-15T19:21:29.286Z,47.70
2023-05-15T19:23:57.557Z,45.55
2023-05-15T19:26:25.824Z,46.54
2023-05-15T19:28:55.754Z,44.86
2023-05-15T19:31:31.456Z,44.29
2023-05-15T19:34:00.799Z,46.88
2023-05-15T19:36:29.082Z,44.49
2023-05-15T19:38:57.329Z,43.75
2023-05-15T19:41:25.696Z,45.78
2023-05-15T19:43:55.380Z,45.11
2023-05-15T19:46:23.667Z,44.17
2023-05-15T19:48:51.985Z,44.12
2023-05-15T19:51:20.215Z,42.79
2023-05-15T19:53:48.515Z,43.57
2023-05-15T19:56:16.726Z,43.03
2023-05-15T19:58:44.950Z,44.38
2023-05-15T20:01:14.740Z,44.80
2023-05-15T20:03:43.167Z,44.25
2023-05-15T20:06:12.098Z,43.86
2023-05-15T20:08:40.559Z,43.80
2023-05-15T20:11:08.877Z,43.37
2023-05-15T20:13:37.550Z,43.81
2023-05-15T20:16:09.914Z,44.78
2023-05-15T20:18:40.200Z,44.86
2023-05-15T20:21:08.642Z,44.35
2023-05-15T20:23:36.873Z,46.56
2023-05-15T20:26:05.326Z,47.21
2023-05-15T20:28:33.896Z,46.39
2023-05-15T20:31:03.067Z,45.34
2023-05-15T20:33:31.545Z,46.50
2023-05-15T20:36:02.328Z,45.43
2023-05-15T20:38:30.599Z,44.23
2023-05-15T20:40:58.892Z,45.74
2023-05-15T20:43:27.132Z,45.11
2023-05-15T20:45:55.642Z,45.03
2023-05-15T20:48:23.863Z,46.21
2023-05-15T20:50:53.729Z,44.32
2023-05-15T20:53:23.493Z,45.40
2023-05-15T20:55:51.713Z,45.48
2023-05-15T20:58:19.932Z,44.63
2023-05-15T21:00:48.654Z,47.03
2023-05-15T21:03:17.157Z,47.09
2023-05-15T21:05:45.810Z,47.72
2023-05-15T21:08:14.079Z,51.85
2023-05-15T21:10:43.649Z,50.68
2023-05-15T21:13:11.963Z,50.90
2023-05-15T21:15:40.198Z,49.49
2023-05-15T21:18:08.467Z,52.51
2023-05-15T21:20:36.730Z,51.50
2023-05-15T21:23:05.002Z,50.55
2023-05-15T21:25:33.941Z,47.83
2023-05-15T21:28:03.638Z,50.24
2023-05-15T21:30:32.339Z,52.79
2023-05-15T21:33:00.635Z,50.50
2023-05-15T21:35:31.703Z,51.80
2023-05-15T21:38:00.367Z,49.70
2023-05-15T21:40:28.908Z,50.02
2023-05-15T21:42:57.379Z,49.35
2023-05-15T21:45:27.004Z,48.24
2023-05-15T21:47:55.325Z,48.67
2023-05-15T21:50:23.670Z,51.63
2023-05-15T21:52:51.904Z,52.47
2023-05-15T21:55:20.395Z,50.16
2023-05-15T21:57:48.660Z,50.53
2023-05-15T22:00:17.719Z,52.77
2023-05-15T22:02:47.489Z,55.86
2023-05-15T22:05:16.134Z,51.70
2023-05-15T22:07:44.593Z,53.55
2023-05-15T22:10:16.373Z,48.86
2023-05-15T22:12:44.816Z,49.10
2023-05-15T22:15:14.493Z,50.28
2023-05-15T22:17:42.840Z,50.80
2023-05-15T22:20:13.964Z,50.16
2023-05-15T22:22:43.502Z,52.70
2023-05-15T22:25:11.947Z,52.70
2023-05-15T22:27:40.196Z,50.88
2023-05-15T22:30:09.773Z,53.39
2023-05-15T22:32:38.008Z,52.72
2023-05-15T22:35:07.296Z,53.73
2023-05-15T22:37:36.994Z,57.40
2023-05-15T22:40:07.493Z,56.81
2023-05-15T22:42:35.558Z,54.99
2023-05-15T22:45:04.177Z,56.59
2023-05-15T22:47:32.646Z,53.71
2023-05-15T22:50:00.924Z,53.83
2023-05-15T22:52:29.171Z,55.62
2023-05-15T22:54:58.743Z,52.14
2023-05-15T22:57:27.013Z,54.69
2023-05-15T22:59:55.576Z,53.97
2023-05-15T23:02:23.975Z,59.27
2023-05-15T23:04:52.238Z,55.99
2023-05-15T23:07:20.626Z,53.88
2023-05-15T23:09:48.866Z,56.57
2023-05-15T23:12:18.503Z,54.04
2023-05-15T23:14:46.742Z,51.22
2023-05-15T23:17:15.098Z,51.25
2023-05-15T23:19:43.414Z,57.38
2023-05-15T23:22:12.789Z,56.74
2023-05-15T23:24:41.038Z,56.70
2023-05-15T23:27:09.261Z,56.44
2023-05-15T23:29:38.871Z,52.85
2023-05-15T23:32:08.160Z,53.08
2023-05-15T23:34:36.390Z,50.11
2023-05-15T23:37:04.747Z,54.54
2023-05-15T23:39:32.952Z,52.26
2023-05-15T23:42:01.274Z,55.69
2023-05-15T23:44:31.412Z,58.12
2023-05-15T23:47:01.072Z,56.78
2023-05-15T23:49:29.346Z,58.79
2023-05-15T23:51:57.603Z,54.67
2023-05-15T23:54:25.992Z,56.45
2023-05-15T23:56:54.309Z,55.58
2023-05-15T23:59:22.760Z,51.75
